sensor_id;sensor_type;location;lat;lon;timestamp;P1;durP1;ratioP1;P2;durP2;ratioP2
69083;SDS011;56185;48.526;9.044;2022-09-01T00:00:57;7.80;;;6.37;;
69083;SDS011;56185;48.526;9.044;2022-09-01T00:03:22;8.93;;;6.30;;
69083;SDS011;56185;48.526;9.044;2022-09-01T00:05:48;8.60;;;6.43;;
69083;SDS011;56185;48.526;9.044;2022-09-01T00:08:14;8.20;;;6.03;;
69083;SDS011;56185;48.526;9.044;2022-09-01T00:10:39;7.70;;;6.10;;
69083;SDS011;56185;48.526;9.044;2022-09-01T00:13:05;9.13;;;6.40;;
69083;SDS011;56185;48.526;9.044;2022-09-01T00:15:30;8.30;;;6.03;;
69083;SDS011;56185;48.526;9.044;2022-09-01T00:17:55;7.40;;;6.00;;
69083;SDS011;56185;48.526;9.044;2022-09-01T00:20:21;10.77;;;6.40;;
69083;SDS011;56185;48.526;9.044;2022-09-01T00:22:46;10.60;;;6.32;;
69083;SDS011;56185;48.526;9.044;2022-09-01T00:25:12;7.18;;;6.13;;
69083;SDS011;56185;48.526;9.044;2022-09-01T00:27:37;10.80;;;6.72;;
69083;SDS011;56185;48.526;9.044;2022-09-01T00:30:03;9.10;;;6.50;;
69083;SDS011;56185;48.526;9.044;2022-09-01T00:32:28;10.77;;;6.03;;
69083;SDS011;56185;48.526;9.044;2022-09-01T00:34:54;7.70;;;6.07;;
69083;SDS011;56185;48.526;9.044;2022-09-01T00:37:19;8.40;;;6.28;;
69083;SDS011;56185;48.526;9.044;2022-09-01T00:39:44;9.45;;;6.25;;
69083;SDS011;56185;48.526;9.044;2022-09-01T00:42:09;8.10;;;6.70;;
69083;SDS011;56185;48.526;9.044;2022-09-01T00:44:35;9.87;;;6.90;;
69083;SDS011;56185;48.526;9.044;2022-09-01T00:47:01;10.20;;;6.22;;
69083;SDS011;56185;48.526;9.044;2022-09-01T00:52:20;10.18;;;6.30;;
69083;SDS011;56185;48.526;9.044;2022-09-01T00:54:53;8.13;;;6.00;;
69083;SDS011;56185;48.526;9.044;2022-09-01T00:57:20;8.23;;;6.00;;
69083;SDS011;56185;48.526;9.044;2022-09-01T00:59:49;8.40;;;6.60;;
69083;SDS011;56185;48.526;9.044;2022-09-01T01:02:22;8.73;;;6.50;;
69083;SDS011;56185;48.526;9.044;2022-09-01T01:04:47;10.75;;;6.85;;
69083;SDS011;56185;48.526;9.044;2022-09-01T01:07:12;7.90;;;6.32;;
69083;SDS011;56185;48.526;9.044;2022-09-01T01:09:41;11.05;;;6.68;;
69083;SDS011;56185;48.526;9.044;2022-09-01T01:12:08;9.70;;;6.53;;
69083;SDS011;56185;48.526;9.044;2022-09-01T01:14:34;9.10;;;6.60;;
69083;SDS011;56185;48.526;9.044;2022-09-01T01:16:59;8.67;;;6.40;;
69083;SDS011;56185;48.526;9.044;2022-09-01T01:19:39;7.40;;;5.88;;
69083;SDS011;56185;48.526;9.044;2022-09-01T01:22:07;9.27;;;6.13;;
69083;SDS011;56185;48.526;9.044;2022-09-01T01:24:40;8.73;;;5.97;;
69083;SDS011;56185;48.526;9.044;2022-09-01T01:27:05;8.55;;;6.10;;
69083;SDS011;56185;48.526;9.044;2022-09-01T01:29:32;7.90;;;6.07;;
69083;SDS011;56185;48.526;9.044;2022-09-01T01:31:59;8.40;;;6.32;;
69083;SDS011;56185;48.526;9.044;2022-09-01T01:34:24;8.82;;;6.28;;
69083;SDS011;56185;48.526;9.044;2022-09-01T01:36:49;8.43;;;6.10;;
69083;SDS011;56185;48.526;9.044;2022-09-01T01:39:17;8.45;;;5.78;;
69083;SDS011;56185;48.526;9.044;2022-09-01T01:41:47;7.78;;;6.18;;
69083;SDS011;56185;48.526;9.044;2022-09-01T01:44:13;9.35;;;6.15;;
69083;SDS011;56185;48.526;9.044;2022-09-01T01:46:43;9.75;;;6.13;;
69083;SDS011;56185;48.526;9.044;2022-09-01T01:49:12;8.50;;;5.53;;
69083;SDS011;56185;48.526;9.044;2022-09-01T01:51:39;7.40;;;6.15;;
69083;SDS011;56185;48.526;9.044;2022-09-01T01:54:04;8.02;;;6.32;;
69083;SDS011;56185;48.526;9.044;2022-09-01T01:56:31;9.57;;;7.25;;
69083;SDS011;56185;48.526;9.044;2022-09-01T01:58:58;9.05;;;8.07;;
69083;SDS011;56185;48.526;9.044;2022-09-01T02:01:27;11.30;;;8.45;;
69083;SDS011;56185;48.526;9.044;2022-09-01T02:03:54;13.20;;;9.85;;
69083;SDS011;56185;48.526;9.044;2022-09-01T02:06:21;12.23;;;10.32;;
69083;SDS011;56185;48.526;9.044;2022-09-01T02:08:48;11.48;;;10.07;;
69083;SDS011;56185;48.526;9.044;2022-09-01T02:11:13;12.93;;;10.13;;
69083;SDS011;56185;48.526;9.044;2022-09-01T02:13:38;12.52;;;10.32;;
69083;SDS011;56185;48.526;9.044;2022-09-01T02:16:05;9.33;;;7.73;;
69083;SDS011;56185;48.526;9.044;2022-09-01T02:18:32;9.02;;;6.80;;
69083;SDS011;56185;48.526;9.044;2022-09-01T02:21:03;8.63;;;6.25;;
69083;SDS011;56185;48.526;9.044;2022-09-01T02:23:29;7.72;;;6.22;;
69083;SDS011;56185;48.526;9.044;2022-09-01T02:25:56;10.07;;;6.87;;
69083;SDS011;56185;48.526;9.044;2022-09-01T02:28:22;8.13;;;6.40;;
69083;SDS011;56185;48.526;9.044;2022-09-01T02:30:49;9.82;;;6.22;;
69083;SDS011;56185;48.526;9.044;2022-09-01T02:33:16;8.70;;;6.18;;
69083;SDS011;56185;48.526;9.044;2022-09-01T02:35:42;7.63;;;6.28;;
69083;SDS011;56185;48.526;9.044;2022-09-01T02:38:07;9.20;;;6.30;;
69083;SDS011;56185;48.526;9.044;2022-09-01T02:40:32;10.23;;;6.40;;
69083;SDS011;56185;48.526;9.044;2022-09-01T02:42:58;8.05;;;5.60;;
69083;SDS011;56185;48.526;9.044;2022-09-01T02:45:25;9.00;;;6.13;;
69083;SDS011;56185;48.526;9.044;2022-09-01T02:47:53;7.45;;;5.88;;
69083;SDS011;56185;48.526;9.044;2022-09-01T02:50:18;10.75;;;6.35;;
69083;SDS011;56185;48.526;9.044;2022-09-01T02:52:44;8.70;;;5.85;;
69083;SDS011;56185;48.526;9.044;2022-09-01T02:55:10;7.95;;;5.57;;
69083;SDS011;56185;48.526;9.044;2022-09-01T02:57:36;6.75;;;5.78;;
69083;SDS011;56185;48.526;9.044;2022-09-01T03:00:02;9.50;;;6.25;;
69083;SDS011;56185;48.526;9.044;2022-09-01T03:02:30;8.55;;;5.93;;
69083;SDS011;56185;48.526;9.044;2022-09-01T03:04:55;7.30;;;5.63;;
69083;SDS011;56185;48.526;9.044;2022-09-01T03:07:21;6.70;;;5.90;;
69083;SDS011;56185;48.526;9.044;2022-09-01T03:09:46;6.77;;;5.40;;
69083;SDS011;56185;48.526;9.044;2022-09-01T03:12:11;6.00;;;5.33;;
69083;SDS011;56185;48.526;9.044;2022-09-01T03:14:36;7.72;;;5.22;;
69083;SDS011;56185;48.526;9.044;2022-09-01T03:17:02;9.40;;;5.93;;
69083;SDS011;56185;48.526;9.044;2022-09-01T03:19:27;6.00;;;5.40;;
69083;SDS011;56185;48.526;9.044;2022-09-01T03:21:52;6.50;;;5.78;;
69083;SDS011;56185;48.526;9.044;2022-09-01T03:24:17;8.40;;;6.13;;
69083;SDS011;56185;48.526;9.044;2022-09-01T03:26:43;9.50;;;5.93;;
69083;SDS011;56185;48.526;9.044;2022-09-01T03:29:10;8.80;;;6.60;;
69083;SDS011;56185;48.526;9.044;2022-09-01T03:31:35;9.13;;;6.43;;
69083;SDS011;56185;48.526;9.044;2022-09-01T03:34:02;10.80;;;6.90;;
69083;SDS011;56185;48.526;9.044;2022-09-01T03:36:28;9.45;;;7.15;;
69083;SDS011;56185;48.526;9.044;2022-09-01T03:38:54;10.07;;;7.20;;
69083;SDS011;56185;48.526;9.044;2022-09-01T03:41:24;9.40;;;6.93;;
69083;SDS011;56185;48.526;9.044;2022-09-01T03:43:51;10.77;;;7.28;;
69083;SDS011;56185;48.526;9.044;2022-09-01T03:46:17;12.93;;;7.47;;
69083;SDS011;56185;48.526;9.044;2022-09-01T03:48:42;10.98;;;7.22;;
69083;SDS011;56185;48.526;9.044;2022-09-01T03:51:07;14.47;;;7.80;;
69083;SDS011;56185;48.526;9.044;2022-09-01T03:53:33;13.57;;;7.80;;
69083;SDS011;56185;48.526;9.044;2022-09-01T03:56:01;13.93;;;7.43;;
69083;SDS011;56185;48.526;9.044;2022-09-01T03:58:26;9.38;;;7.70;;
69083;SDS011;56185;48.526;9.044;2022-09-01T04:03:18;20.75;;;8.25;;
69083;SDS011;56185;48.526;9.044;2022-09-01T04:05:44;12.38;;;8.68;;
69083;SDS011;56185;48.526;9.044;2022-09-01T04:08:10;8.47;;;7.30;;
69083;SDS011;56185;48.526;9.044;2022-09-01T04:10:41;10.15;;;7.50;;
69083;SDS011;56185;48.526;9.044;2022-09-01T04:13:15;11.75;;;8.60;;
69083;SDS011;56185;48.526;9.044;2022-09-01T04:15:41;9.85;;;7.78;;
69083;SDS011;56185;48.526;9.044;2022-09-01T04:18:07;9.02;;;8.13;;
69083;SDS011;56185;48.526;9.044;2022-09-01T04:20:32;7.95;;;6.97;;
69083;SDS011;56185;48.526;9.044;2022-09-01T04:22:57;10.53;;;8.13;;
69083;SDS011;56185;48.526;9.044;2022-09-01T04:25:22;10.83;;;7.63;;
69083;SDS011;56185;48.526;9.044;2022-09-01T04:27:48;8.43;;;7.33;;
69083;SDS011;56185;48.526;9.044;2022-09-01T04:30:14;8.10;;;7.25;;
69083;SDS011;56185;48.526;9.044;2022-09-01T04:32:40;9.75;;;7.70;;
69083;SDS011;56185;48.526;9.044;2022-09-01T04:35:06;10.25;;;8.27;;
69083;SDS011;56185;48.526;9.044;2022-09-01T04:37:32;10.20;;;8.05;;
69083;SDS011;56185;48.526;9.044;2022-09-01T04:39:57;8.20;;;7.10;;
69083;SDS011;56185;48.526;9.044;2022-09-01T04:42:24;10.68;;;7.07;;
69083;SDS011;56185;48.526;9.044;2022-09-01T04:44:51;10.65;;;8.07;;
69083;SDS011;56185;48.526;9.044;2022-09-01T04:47:17;8.55;;;7.18;;
69083;SDS011;56185;48.526;9.044;2022-09-01T04:49:42;9.90;;;8.03;;
69083;SDS011;56185;48.526;9.044;2022-09-01T04:52:08;10.95;;;8.77;;
69083;SDS011;56185;48.526;9.044;2022-09-01T04:54:33;10.60;;;9.10;;
69083;SDS011;56185;48.526;9.044;2022-09-01T04:56:58;9.80;;;8.65;;
69083;SDS011;56185;48.526;9.044;2022-09-01T04:59:24;9.87;;;8.37;;
69083;SDS011;56185;48.526;9.044;2022-09-01T05:01:49;9.70;;;8.60;;
69083;SDS011;56185;48.526;9.044;2022-09-01T05:04:16;10.95;;;9.65;;
69083;SDS011;56185;48.526;9.044;2022-09-01T05:06:44;14.00;;;9.85;;
69083;SDS011;56185;48.526;9.044;2022-09-01T05:09:12;12.20;;;9.52;;
69083;SDS011;56185;48.526;9.044;2022-09-01T05:11:38;10.85;;;9.75;;
69083;SDS011;56185;48.526;9.044;2022-09-01T05:14:04;11.50;;;10.02;;
69083;SDS011;56185;48.526;9.044;2022-09-01T05:16:30;13.82;;;10.77;;
69083;SDS011;56185;48.526;9.044;2022-09-01T05:18:55;11.67;;;9.30;;
69083;SDS011;56185;48.526;9.044;2022-09-01T05:21:21;12.27;;;10.63;;
69083;SDS011;56185;48.526;9.044;2022-09-01T05:23:47;11.35;;;9.50;;
69083;SDS011;56185;48.526;9.044;2022-09-01T05:26:16;9.75;;;8.38;;
69083;SDS011;56185;48.526;9.044;2022-09-01T05:28:43;14.00;;;10.63;;
69083;SDS011;56185;48.526;9.044;2022-09-01T05:31:10;11.35;;;9.95;;
69083;SDS011;56185;48.526;9.044;2022-09-01T05:33:36;12.15;;;10.77;;
69083;SDS011;56185;48.526;9.044;2022-09-01T05:36:02;11.03;;;9.83;;
69083;SDS011;56185;48.526;9.044;2022-09-01T05:38:28;15.00;;;11.27;;
69083;SDS011;56185;48.526;9.044;2022-09-01T05:40:57;12.03;;;10.20;;
69083;SDS011;56185;48.526;9.044;2022-09-01T05:43:23;11.52;;;10.32;;
69083;SDS011;56185;48.526;9.044;2022-09-01T05:45:49;11.90;;;9.55;;
69083;SDS011;56185;48.526;9.044;2022-09-01T05:48:14;13.27;;;10.03;;
69083;SDS011;56185;48.526;9.044;2022-09-01T05:50:39;11.53;;;10.00;;
69083;SDS011;56185;48.526;9.044;2022-09-01T05:53:05;12.40;;;9.43;;
69083;SDS011;56185;48.526;9.044;2022-09-01T05:55:30;13.95;;;10.25;;
69083;SDS011;56185;48.526;9.044;2022-09-01T05:57:55;14.27;;;11.27;;
69083;SDS011;56185;48.526;9.044;2022-09-01T06:00:21;14.67;;;10.30;;
69083;SDS011;56185;48.526;9.044;2022-09-01T06:02:46;11.68;;;9.88;;
69083;SDS011;56185;48.526;9.044;2022-09-01T06:05:11;11.53;;;9.87;;
69083;SDS011;56185;48.526;9.044;2022-09-01T06:07:36;12.27;;;10.43;;
69083;SDS011;56185;48.526;9.044;2022-09-01T06:10:02;15.27;;;11.23;;
69083;SDS011;56185;48.526;9.044;2022-09-01T06:12:28;13.80;;;11.00;;
69083;SDS011;56185;48.526;9.044;2022-09-01T06:14:54;13.30;;;11.00;;
69083;SDS011;56185;48.526;9.044;2022-09-01T06:17:20;13.52;;;11.20;;
69083;SDS011;56185;48.526;9.044;2022-09-01T06:19:47;12.70;;;10.63;;
69083;SDS011;56185;48.526;9.044;2022-09-01T06:22:13;14.30;;;11.53;;
69083;SDS011;56185;48.526;9.044;2022-09-01T06:24:38;15.02;;;11.30;;
69083;SDS011;56185;48.526;9.044;2022-09-01T06:27:03;14.23;;;10.95;;
69083;SDS011;56185;48.526;9.044;2022-09-01T06:29:30;12.75;;;11.10;;
69083;SDS011;56185;48.526;9.044;2022-09-01T06:31:55;14.10;;;10.50;;
69083;SDS011;56185;48.526;9.044;2022-09-01T06:34:20;13.43;;;11.43;;
69083;SDS011;56185;48.526;9.044;2022-09-01T06:36:46;14.48;;;11.32;;
69083;SDS011;56185;48.526;9.044;2022-09-01T06:39:12;14.68;;;12.20;;
69083;SDS011;56185;48.526;9.044;2022-09-01T06:41:38;15.55;;;12.25;;
69083;SDS011;56185;48.526;9.044;2022-09-01T06:44:03;17.00;;;13.37;;
69083;SDS011;56185;48.526;9.044;2022-09-01T06:46:28;15.90;;;12.00;;
69083;SDS011;56185;48.526;9.044;2022-09-01T06:48:54;15.10;;;12.03;;
69083;SDS011;56185;48.526;9.044;2022-09-01T06:51:20;16.02;;;12.15;;
69083;SDS011;56185;48.526;9.044;2022-09-01T06:53:47;16.83;;;12.57;;
69083;SDS011;56185;48.526;9.044;2022-09-01T06:56:14;15.70;;;12.02;;
69083;SDS011;56185;48.526;9.044;2022-09-01T06:58:40;17.27;;;12.60;;
69083;SDS011;56185;48.526;9.044;2022-09-01T07:01:07;17.75;;;12.88;;
69083;SDS011;56185;48.526;9.044;2022-09-01T07:03:34;17.25;;;13.27;;
69083;SDS011;56185;48.526;9.044;2022-09-01T07:05:59;17.37;;;11.70;;
69083;SDS011;56185;48.526;9.044;2022-09-01T07:08:28;18.13;;;12.30;;
69083;SDS011;56185;48.526;9.044;2022-09-01T07:10:53;13.85;;;11.27;;
69083;SDS011;56185;48.526;9.044;2022-09-01T07:13:20;13.87;;;11.87;;
69083;SDS011;56185;48.526;9.044;2022-09-01T07:15:46;16.92;;;13.20;;
69083;SDS011;56185;48.526;9.044;2022-09-01T07:18:11;15.05;;;12.45;;
69083;SDS011;56185;48.526;9.044;2022-09-01T07:20:39;16.67;;;12.70;;
69083;SDS011;56185;48.526;9.044;2022-09-01T07:23:05;16.10;;;12.80;;
69083;SDS011;56185;48.526;9.044;2022-09-01T07:25:30;14.00;;;11.50;;
69083;SDS011;56185;48.526;9.044;2022-09-01T07:27:56;18.17;;;13.55;;
69083;SDS011;56185;48.526;9.044;2022-09-01T07:30:21;14.63;;;11.23;;
69083;SDS011;56185;48.526;9.044;2022-09-01T07:32:47;15.60;;;11.15;;
69083;SDS011;56185;48.526;9.044;2022-09-01T07:35:14;15.38;;;12.43;;
69083;SDS011;56185;48.526;9.044;2022-09-01T07:37:41;18.45;;;14.07;;
69083;SDS011;56185;48.526;9.044;2022-09-01T07:40:08;16.58;;;12.02;;
69083;SDS011;56185;48.526;9.044;2022-09-01T07:42:35;15.57;;;12.40;;
69083;SDS011;56185;48.526;9.044;2022-09-01T07:45:01;18.05;;;12.45;;
69083;SDS011;56185;48.526;9.044;2022-09-01T07:47:26;15.38;;;12.18;;
69083;SDS011;56185;48.526;9.044;2022-09-01T07:49:52;16.47;;;12.40;;
69083;SDS011;56185;48.526;9.044;2022-09-01T07:52:17;17.33;;;12.80;;
69083;SDS011;56185;48.526;9.044;2022-09-01T07:54:42;17.03;;;13.43;;
69083;SDS011;56185;48.526;9.044;2022-09-01T07:57:07;17.00;;;13.10;;
69083;SDS011;56185;48.526;9.044;2022-09-01T07:59:33;15.57;;;13.10;;
69083;SDS011;56185;48.526;9.044;2022-09-01T08:01:58;15.68;;;13.40;;
69083;SDS011;56185;48.526;9.044;2022-09-01T08:04:23;17.53;;;14.10;;
69083;SDS011;56185;48.526;9.044;2022-09-01T08:06:48;17.38;;;12.85;;
69083;SDS011;56185;48.526;9.044;2022-09-01T08:09:14;15.73;;;12.93;;
69083;SDS011;56185;48.526;9.044;2022-09-01T08:11:39;15.38;;;12.40;;
69083;SDS011;56185;48.526;9.044;2022-09-01T08:14:05;14.40;;;11.45;;
69083;SDS011;56185;48.526;9.044;2022-09-01T08:16:30;14.13;;;10.80;;
69083;SDS011;56185;48.526;9.044;2022-09-01T08:18:56;11.35;;;10.13;;
69083;SDS011;56185;48.526;9.044;2022-09-01T08:21:22;14.40;;;11.05;;
69083;SDS011;56185;48.526;9.044;2022-09-01T08:23:51;13.00;;;11.23;;
69083;SDS011;56185;48.526;9.044;2022-09-01T08:26:19;12.40;;;10.95;;
69083;SDS011;56185;48.526;9.044;2022-09-01T08:28:47;14.85;;;9.70;;
69083;SDS011;56185;48.526;9.044;2022-09-01T08:31:14;12.13;;;9.85;;
69083;SDS011;56185;48.526;9.044;2022-09-01T08:33:40;9.70;;;7.22;;
69083;SDS011;56185;48.526;9.044;2022-09-01T08:36:07;8.63;;;6.38;;
69083;SDS011;56185;48.526;9.044;2022-09-01T08:38:33;7.15;;;6.03;;
69083;SDS011;56185;48.526;9.044;2022-09-01T08:40:59;8.65;;;6.75;;
69083;SDS011;56185;48.526;9.044;2022-09-01T08:48:50;9.60;;;6.47;;
69083;SDS011;56185;48.526;9.044;2022-09-01T08:51:21;9.45;;;6.30;;
69083;SDS011;56185;48.526;9.044;2022-09-01T08:58:55;6.97;;;5.13;;
69083;SDS011;56185;48.526;9.044;2022-09-01T09:01:28;5.70;;;5.03;;
69083;SDS011;56185;48.526;9.044;2022-09-01T09:04:06;5.40;;;4.22;;
69083;SDS011;56185;48.526;9.044;2022-09-01T09:06:50;8.07;;;4.68;;
69083;SDS011;56185;48.526;9.044;2022-09-01T09:09:27;7.30;;;5.15;;
69083;SDS011;56185;48.526;9.044;2022-09-01T09:12:19;6.43;;;5.10;;
69083;SDS011;56185;48.526;9.044;2022-09-01T09:15:09;7.18;;;5.07;;
69083;SDS011;56185;48.526;9.044;2022-09-01T09:17:44;6.32;;;4.80;;
69083;SDS011;56185;48.526;9.044;2022-09-01T09:20:13;7.63;;;4.85;;
69083;SDS011;56185;48.526;9.044;2022-09-01T09:22:38;5.43;;;4.63;;
69083;SDS011;56185;48.526;9.044;2022-09-01T09:25:10;6.45;;;4.95;;
69083;SDS011;56185;48.526;9.044;2022-09-01T09:27:41;6.68;;;4.82;;
69083;SDS011;56185;48.526;9.044;2022-09-01T09:32:43;6.82;;;5.18;;
69083;SDS011;56185;48.526;9.044;2022-09-01T09:35:28;8.18;;;4.55;;
69083;SDS011;56185;48.526;9.044;2022-09-01T09:40:37;6.75;;;4.57;;
69083;SDS011;56185;48.526;9.044;2022-09-01T09:43:03;5.37;;;4.23;;
69083;SDS011;56185;48.526;9.044;2022-09-01T09:45:37;5.10;;;4.10;;
69083;SDS011;56185;48.526;9.044;2022-09-01T09:50:48;5.32;;;3.88;;
69083;SDS011;56185;48.526;9.044;2022-09-01T09:53:21;5.63;;;3.70;;
69083;SDS011;56185;48.526;9.044;2022-09-01T09:55:54;6.03;;;4.20;;
69083;SDS011;56185;48.526;9.044;2022-09-01T09:58:24;5.95;;;4.05;;
69083;SDS011;56185;48.526;9.044;2022-09-01T10:01:00;4.85;;;3.63;;
69083;SDS011;56185;48.526;9.044;2022-09-01T10:03:39;3.80;;;3.40;;
69083;SDS011;56185;48.526;9.044;2022-09-01T10:06:10;3.50;;;3.00;;
69083;SDS011;56185;48.526;9.044;2022-09-01T10:08:41;4.70;;;3.03;;
69083;SDS011;56185;48.526;9.044;2022-09-01T10:11:08;3.67;;;2.80;;
69083;SDS011;56185;48.526;9.044;2022-09-01T10:13:33;4.18;;;2.75;;
69083;SDS011;56185;48.526;9.044;2022-09-01T10:16:00;3.47;;;2.90;;
69083;SDS011;56185;48.526;9.044;2022-09-01T10:18:35;4.72;;;2.97;;
69083;SDS011;56185;48.526;9.044;2022-09-01T10:21:08;4.63;;;2.88;;
69083;SDS011;56185;48.526;9.044;2022-09-01T10:23:37;3.85;;;2.72;;
69083;SDS011;56185;48.526;9.044;2022-09-01T10:31:23;3.83;;;2.60;;
69083;SDS011;56185;48.526;9.044;2022-09-01T10:33:48;3.03;;;2.40;;
69083;SDS011;56185;48.526;9.044;2022-09-01T10:36:14;3.13;;;2.60;;
69083;SDS011;56185;48.526;9.044;2022-09-01T10:38:40;3.53;;;2.50;;
69083;SDS011;56185;48.526;9.044;2022-09-01T10:41:06;2.97;;;2.20;;
69083;SDS011;56185;48.526;9.044;2022-09-01T10:46:47;2.60;;;2.30;;
69083;SDS011;56185;48.526;9.044;2022-09-01T10:48:54;3.20;;;2.22;;
69083;SDS011;56185;48.526;9.044;2022-09-01T10:53:49;3.50;;;2.30;;
69083;SDS011;56185;48.526;9.044;2022-09-01T11:04:15;2.70;;;2.30;;
69083;SDS011;56185;48.526;9.044;2022-09-01T11:09:29;3.08;;;2.38;;
69083;SDS011;56185;48.526;9.044;2022-09-01T11:14:27;3.05;;;2.15;;
69083;SDS011;56185;48.526;9.044;2022-09-01T11:19:53;3.92;;;2.05;;
69083;SDS011;56185;48.526;9.044;2022-09-01T11:22:32;3.22;;;2.28;;
69083;SDS011;56185;48.526;9.044;2022-09-01T11:25:29;2.40;;;2.20;;
69083;SDS011;56185;48.526;9.044;2022-09-01T11:28:02;2.90;;;2.50;;
69083;SDS011;56185;48.526;9.044;2022-09-01T11:33:00;3.10;;;2.30;;
69083;SDS011;56185;48.526;9.044;2022-09-01T11:35:35;4.88;;;2.40;;
69083;SDS011;56185;48.526;9.044;2022-09-01T11:38:01;3.15;;;2.40;;
69083;SDS011;56185;48.526;9.044;2022-09-01T11:40:32;4.07;;;2.50;;
69083;SDS011;56185;48.526;9.044;2022-09-01T11:42:59;4.47;;;2.53;;
69083;SDS011;56185;48.526;9.044;2022-09-01T11:45:30;2.45;;;2.20;;
69083;SDS011;56185;48.526;9.044;2022-09-01T11:48:07;3.60;;;2.67;;
69083;SDS011;56185;48.526;9.044;2022-09-01T11:50:35;4.07;;;2.20;;
69083;SDS011;56185;48.526;9.044;2022-09-01T11:53:06;4.15;;;2.42;;
69083;SDS011;56185;48.526;9.044;2022-09-01T11:55:37;3.60;;;2.47;;
69083;SDS011;56185;48.526;9.044;2022-09-01T11:58:02;3.08;;;2.17;;
69083;SDS011;56185;48.526;9.044;2022-09-01T12:00:36;3.22;;;2.33;;
69083;SDS011;56185;48.526;9.044;2022-09-01T12:03:05;3.88;;;2.33;;
69083;SDS011;56185;48.526;9.044;2022-09-01T12:05:44;4.85;;;2.30;;
69083;SDS011;56185;48.526;9.044;2022-09-01T12:08:13;2.65;;;2.30;;
69083;SDS011;56185;48.526;9.044;2022-09-01T12:10:41;2.75;;;2.17;;
69083;SDS011;56185;48.526;9.044;2022-09-01T12:13:08;2.53;;;2.00;;
69083;SDS011;56185;48.526;9.044;2022-09-01T12:15:38;3.03;;;2.40;;
69083;SDS011;56185;48.526;9.044;2022-09-01T12:18:17;2.58;;;2.33;;
69083;SDS011;56185;48.526;9.044;2022-09-01T12:20:45;3.25;;;2.25;;
69083;SDS011;56185;48.526;9.044;2022-09-01T12:25:55;2.85;;;2.33;;
69083;SDS011;56185;48.526;9.044;2022-09-01T12:28:24;2.55;;;2.20;;
69083;SDS011;56185;48.526;9.044;2022-09-01T12:30:51;2.88;;;2.25;;
69083;SDS011;56185;48.526;9.044;2022-09-01T12:33:18;2.60;;;2.05;;
69083;SDS011;56185;48.526;9.044;2022-09-01T12:35:44;2.60;;;2.22;;
69083;SDS011;56185;48.526;9.044;2022-09-01T12:40:52;2.95;;;2.28;;
69083;SDS011;56185;48.526;9.044;2022-09-01T12:43:34;2.67;;;1.98;;
69083;SDS011;56185;48.526;9.044;2022-09-01T12:46:02;2.25;;;1.95;;
69083;SDS011;56185;48.526;9.044;2022-09-01T12:48:29;2.75;;;2.10;;
69083;SDS011;56185;48.526;9.044;2022-09-01T12:50:59;2.53;;;2.05;;
69083;SDS011;56185;48.526;9.044;2022-09-01T12:53:28;2.30;;;2.03;;
69083;SDS011;56185;48.526;9.044;2022-09-01T12:55:58;2.70;;;1.98;;
69083;SDS011;56185;48.526;9.044;2022-09-01T12:58:27;2.35;;;1.88;;
69083;SDS011;56185;48.526;9.044;2022-09-01T13:01:02;2.33;;;2.00;;
69083;SDS011;56185;48.526;9.044;2022-09-01T13:03:32;3.35;;;2.05;;
69083;SDS011;56185;48.526;9.044;2022-09-01T13:05:59;3.20;;;1.95;;
69083;SDS011;56185;48.526;9.044;2022-09-01T13:08:32;3.03;;;1.98;;
69083;SDS011;56185;48.526;9.044;2022-09-01T13:11:06;2.25;;;1.80;;
69083;SDS011;56185;48.526;9.044;2022-09-01T13:13:33;2.55;;;2.10;;
69083;SDS011;56185;48.526;9.044;2022-09-01T13:16:00;2.50;;;1.85;;
69083;SDS011;56185;48.526;9.044;2022-09-01T13:18:27;3.05;;;2.35;;
69083;SDS011;56185;48.526;9.044;2022-09-01T13:20:52;2.60;;;2.00;;
69083;SDS011;56185;48.526;9.044;2022-09-01T13:23:19;2.50;;;2.05;;
69083;SDS011;56185;48.526;9.044;2022-09-01T13:25:44;2.47;;;2.00;;
69083;SDS011;56185;48.526;9.044;2022-09-01T13:28:11;2.70;;;2.10;;
69083;SDS011;56185;48.526;9.044;2022-09-01T13:30:37;3.67;;;2.20;;
69083;SDS011;56185;48.526;9.044;2022-09-01T13:33:04;2.72;;;2.03;;
69083;SDS011;56185;48.526;9.044;2022-09-01T13:35:29;3.22;;;2.20;;
69083;SDS011;56185;48.526;9.044;2022-09-01T13:37:55;2.88;;;2.22;;
69083;SDS011;56185;48.526;9.044;2022-09-01T13:40:20;2.47;;;2.10;;
69083;SDS011;56185;48.526;9.044;2022-09-01T13:42:47;2.67;;;2.03;;
69083;SDS011;56185;48.526;9.044;2022-09-01T13:45:15;3.63;;;2.10;;
69083;SDS011;56185;48.526;9.044;2022-09-01T13:47:42;3.38;;;2.40;;
69083;SDS011;56185;48.526;9.044;2022-09-01T13:50:09;2.13;;;1.90;;
69083;SDS011;56185;48.526;9.044;2022-09-01T13:52:40;2.08;;;1.80;;
69083;SDS011;56185;48.526;9.044;2022-09-01T13:55:13;3.13;;;2.00;;
69083;SDS011;56185;48.526;9.044;2022-09-01T13:57:50;2.67;;;1.92;;
69083;SDS011;56185;48.526;9.044;2022-09-01T14:00:27;3.13;;;2.10;;
69083;SDS011;56185;48.526;9.044;2022-09-01T14:03:04;2.33;;;2.00;;
69083;SDS011;56185;48.526;9.044;2022-09-01T14:05:33;3.92;;;2.40;;
69083;SDS011;56185;48.526;9.044;2022-09-01T14:08:01;2.80;;;2.28;;
69083;SDS011;56185;48.526;9.044;2022-09-01T14:10:27;2.85;;;2.08;;
69083;SDS011;56185;48.526;9.044;2022-09-01T14:12:54;2.40;;;2.20;;
69083;SDS011;56185;48.526;9.044;2022-09-01T14:15:20;3.60;;;2.20;;
69083;SDS011;56185;48.526;9.044;2022-09-01T14:17:48;3.17;;;2.20;;
69083;SDS011;56185;48.526;9.044;2022-09-01T14:20:17;9.32;;;2.35;;
69083;SDS011;56185;48.526;9.044;2022-09-01T14:22:45;4.55;;;2.53;;
69083;SDS011;56185;48.526;9.044;2022-09-01T14:25:11;3.42;;;2.30;;
69083;SDS011;56185;48.526;9.044;2022-09-01T14:27:37;5.75;;;2.13;;
69083;SDS011;56185;48.526;9.044;2022-09-01T14:30:06;3.75;;;2.20;;
69083;SDS011;56185;48.526;9.044;2022-09-01T14:32:33;2.47;;;1.90;;
69083;SDS011;56185;48.526;9.044;2022-09-01T14:34:59;2.50;;;1.90;;
69083;SDS011;56185;48.526;9.044;2022-09-01T14:37:24;2.60;;;1.90;;
69083;SDS011;56185;48.526;9.044;2022-09-01T14:39:50;2.03;;;1.83;;
69083;SDS011;56185;48.526;9.044;2022-09-01T14:42:20;3.90;;;1.95;;
69083;SDS011;56185;48.526;9.044;2022-09-01T14:44:47;2.58;;;1.90;;
69083;SDS011;56185;48.526;9.044;2022-09-01T14:47:13;3.10;;;1.90;;
69083;SDS011;56185;48.526;9.044;2022-09-01T14:49:39;2.05;;;1.85;;
69083;SDS011;56185;48.526;9.044;2022-09-01T14:52:05;2.38;;;2.00;;
69083;SDS011;56185;48.526;9.044;2022-09-01T14:54:34;2.10;;;1.90;;
69083;SDS011;56185;48.526;9.044;2022-09-01T14:57:01;2.90;;;2.30;;
69083;SDS011;56185;48.526;9.044;2022-09-01T14:59:27;4.65;;;2.00;;
69083;SDS011;56185;48.526;9.044;2022-09-01T15:01:52;2.63;;;2.00;;
69083;SDS011;56185;48.526;9.044;2022-09-01T15:04:18;4.00;;;2.20;;
69083;SDS011;56185;48.526;9.044;2022-09-01T15:06:43;2.20;;;2.00;;
69083;SDS011;56185;48.526;9.044;2022-09-01T15:09:08;4.97;;;2.10;;
69083;SDS011;56185;48.526;9.044;2022-09-01T15:11:33;2.50;;;2.30;;
69083;SDS011;56185;48.526;9.044;2022-09-01T15:13:59;2.85;;;2.10;;
69083;SDS011;56185;48.526;9.044;2022-09-01T15:16:24;2.40;;;2.17;;
69083;SDS011;56185;48.526;9.044;2022-09-01T15:18:50;3.55;;;1.85;;
69083;SDS011;56185;48.526;9.044;2022-09-01T15:21:17;4.45;;;2.10;;
69083;SDS011;56185;48.526;9.044;2022-09-01T15:26:16;2.70;;;1.98;;
69083;SDS011;56185;48.526;9.044;2022-09-01T15:28:42;3.30;;;2.10;;
69083;SDS011;56185;48.526;9.044;2022-09-01T15:31:08;2.60;;;2.20;;
69083;SDS011;56185;48.526;9.044;2022-09-01T15:33:33;3.10;;;2.20;;
69083;SDS011;56185;48.526;9.044;2022-09-01T15:35:58;2.80;;;1.93;;
69083;SDS011;56185;48.526;9.044;2022-09-01T15:38:24;2.40;;;2.20;;
69083;SDS011;56185;48.526;9.044;2022-09-01T15:40:49;3.00;;;2.00;;
69083;SDS011;56185;48.526;9.044;2022-09-01T15:43:14;2.70;;;2.03;;